sensor_id;sensor_type;location;lat;lon;timestamp;P1;durP1;ratioP1;P2;durP2;ratioP2
23470;SDS011;11908;50.806;4.424;2022-07-06T00:01:37;3.08;;;1.70;;
23470;SDS011;11908;50.806;4.424;2022-07-06T00:04:04;3.75;;;2.28;;
23470;SDS011;11908;50.806;4.424;2022-07-06T00:06:30;2.58;;;2.03;;
23470;SDS011;11908;50.806;4.424;2022-07-06T00:08:56;3.70;;;2.10;;
23470;SDS011;11908;50.806;4.424;2022-07-06T00:11:21;4.63;;;2.50;;
23470;SDS011;11908;50.806;4.424;2022-07-06T00:13:48;5.10;;;2.50;;
23470;SDS011;11908;50.806;4.424;2022-07-06T00:16:13;5.57;;;2.22;;
23470;SDS011;11908;50.806;4.424;2022-07-06T00:18:39;2.95;;;2.00;;
23470;SDS011;11908;50.806;4.424;2022-07-06T00:21:05;4.45;;;2.42;;
23470;SDS011;11908;50.806;4.424;2022-07-06T00:23:30;3.45;;;2.40;;
23470;SDS011;11908;50.806;4.424;2022-07-06T00:25:56;4.57;;;2.33;;
23470;SDS011;11908;50.806;4.424;2022-07-06T00:28:22;2.60;;;2.20;;
23470;SDS011;11908;50.806;4.424;2022-07-06T00:30:47;4.85;;;2.35;;
23470;SDS011;11908;50.806;4.424;2022-07-06T00:33:13;5.50;;;2.70;;
23470;SDS011;11908;50.806;4.424;2022-07-06T00:35:39;5.22;;;2.88;;
23470;SDS011;11908;50.806;4.424;2022-07-06T00:38:04;5.28;;;2.60;;
23470;SDS011;11908;50.806;4.424;2022-07-06T00:40:30;4.70;;;2.55;;
23470;SDS011;11908;50.806;4.424;2022-07-06T00:42:56;7.05;;;2.53;;
23470;SDS011;11908;50.806;4.424;2022-07-06T00:45:22;4.10;;;2.63;;
23470;SDS011;11908;50.806;4.424;2022-07-06T00:47:47;4.13;;;2.45;;
23470;SDS011;11908;50.806;4.424;2022-07-06T00:50:14;5.57;;;2.20;;
23470;SDS011;11908;50.806;4.424;2022-07-06T00:52:55;3.55;;;2.45;;
23470;SDS011;11908;50.806;4.424;2022-07-06T00:55:23;2.67;;;2.40;;
23470;SDS011;11908;50.806;4.424;2022-07-06T00:57:50;8.63;;;2.55;;
23470;SDS011;11908;50.806;4.424;2022-07-06T01:00:18;5.15;;;2.53;;
23470;SDS011;11908;50.806;4.424;2022-07-06T01:02:46;2.58;;;2.38;;
23470;SDS011;11908;50.806;4.424;2022-07-06T01:05:12;7.22;;;2.30;;
23470;SDS011;11908;50.806;4.424;2022-07-06T01:07:40;5.82;;;2.20;;
23470;SDS011;11908;50.806;4.424;2022-07-06T01:10:09;2.60;;;2.10;;
23470;SDS011;11908;50.806;4.424;2022-07-06T01:12:36;5.38;;;2.47;;
23470;SDS011;11908;50.806;4.424;2022-07-06T01:15:03;3.63;;;2.42;;
23470;SDS011;11908;50.806;4.424;2022-07-06T01:17:30;7.80;;;2.53;;
23470;SDS011;11908;50.806;4.424;2022-07-06T01:19:57;6.63;;;2.45;;
23470;SDS011;11908;50.806;4.424;2022-07-06T01:22:22;6.93;;;2.40;;
23470;SDS011;11908;50.806;4.424;2022-07-06T01:24:48;4.70;;;2.35;;
23470;SDS011;11908;50.806;4.424;2022-07-06T01:27:14;3.63;;;2.00;;
23470;SDS011;11908;50.806;4.424;2022-07-06T01:29:39;4.50;;;2.10;;
23470;SDS011;11908;50.806;4.424;2022-07-06T01:32:05;5.05;;;2.10;;
23470;SDS011;11908;50.806;4.424;2022-07-06T01:34:31;3.30;;;2.47;;
23470;SDS011;11908;50.806;4.424;2022-07-06T01:36:57;5.38;;;2.70;;
23470;SDS011;11908;50.806;4.424;2022-07-06T01:39:23;4.55;;;2.53;;
23470;SDS011;11908;50.806;4.424;2022-07-06T01:41:48;3.75;;;2.85;;
23470;SDS011;11908;50.806;4.424;2022-07-06T01:44:14;4.53;;;2.97;;
23470;SDS011;11908;50.806;4.424;2022-07-06T01:46:40;6.40;;;2.95;;
23470;SDS011;11908;50.806;4.424;2022-07-06T01:49:05;5.35;;;3.20;;
23470;SDS011;11908;50.806;4.424;2022-07-06T01:51:31;6.63;;;3.50;;
23470;SDS011;11908;50.806;4.424;2022-07-06T01:53:57;5.22;;;3.25;;
23470;SDS011;11908;50.806;4.424;2022-07-06T01:56:23;4.95;;;2.83;;
23470;SDS011;11908;50.806;4.424;2022-07-06T01:58:48;4.53;;;2.90;;
23470;SDS011;11908;50.806;4.424;2022-07-06T02:01:17;5.47;;;2.70;;
23470;SDS011;11908;50.806;4.424;2022-07-06T02:03:44;4.35;;;2.92;;
23470;SDS011;11908;50.806;4.424;2022-07-06T02:06:10;5.72;;;2.40;;
23470;SDS011;11908;50.806;4.424;2022-07-06T02:08:39;7.70;;;3.00;;
23470;SDS011;11908;50.806;4.424;2022-07-06T02:11:06;6.68;;;2.92;;
23470;SDS011;11908;50.806;4.424;2022-07-06T02:13:33;4.18;;;3.03;;
23470;SDS011;11908;50.806;4.424;2022-07-06T02:15:59;4.93;;;2.70;;
23470;SDS011;11908;50.806;4.424;2022-07-06T02:18:25;3.90;;;2.90;;
23470;SDS011;11908;50.806;4.424;2022-07-06T02:20:51;7.53;;;2.95;;
23470;SDS011;11908;50.806;4.424;2022-07-06T02:23:16;3.63;;;2.63;;
23470;SDS011;11908;50.806;4.424;2022-07-06T02:25:42;3.92;;;2.47;;
23470;SDS011;11908;50.806;4.424;2022-07-06T02:28:08;4.75;;;2.58;;
23470;SDS011;11908;50.806;4.424;2022-07-06T02:30:34;3.10;;;2.35;;
23470;SDS011;11908;50.806;4.424;2022-07-06T02:32:59;7.20;;;2.30;;
23470;SDS011;11908;50.806;4.424;2022-07-06T02:35:25;3.78;;;2.20;;
23470;SDS011;11908;50.806;4.424;2022-07-06T02:37:51;4.68;;;2.38;;
23470;SDS011;11908;50.806;4.424;2022-07-06T02:40:16;4.53;;;2.50;;
23470;SDS011;11908;50.806;4.424;2022-07-06T02:42:42;4.82;;;2.58;;
23470;SDS011;11908;50.806;4.424;2022-07-06T02:45:08;3.92;;;2.67;;
23470;SDS011;11908;50.806;4.424;2022-07-06T02:47:34;5.18;;;2.53;;
23470;SDS011;11908;50.806;4.424;2022-07-06T02:50:00;4.72;;;2.50;;
23470;SDS011;11908;50.806;4.424;2022-07-06T02:52:26;3.33;;;2.40;;
23470;SDS011;11908;50.806;4.424;2022-07-06T02:54:52;3.80;;;2.40;;
23470;SDS011;11908;50.806;4.424;2022-07-06T02:57:18;5.22;;;2.53;;
23470;SDS011;11908;50.806;4.424;2022-07-06T02:59:44;4.30;;;2.70;;
23470;SDS011;11908;50.806;4.424;2022-07-06T03:02:10;4.88;;;2.50;;
23470;SDS011;11908;50.806;4.424;2022-07-06T03:04:36;4.45;;;2.30;;
23470;SDS011;11908;50.806;4.424;2022-07-06T03:07:03;4.80;;;2.28;;
23470;SDS011;11908;50.806;4.424;2022-07-06T03:09:28;2.30;;;2.08;;
23470;SDS011;11908;50.806;4.424;2022-07-06T03:11:54;4.47;;;2.15;;
23470;SDS011;11908;50.806;4.424;2022-07-06T03:14:20;4.63;;;2.90;;
23470;SDS011;11908;50.806;4.424;2022-07-06T03:16:45;3.10;;;2.38;;
23470;SDS011;11908;50.806;4.424;2022-07-06T03:19:11;4.32;;;2.50;;
23470;SDS011;11908;50.806;4.424;2022-07-06T03:21:37;4.07;;;2.38;;
23470;SDS011;11908;50.806;4.424;2022-07-06T03:24:03;3.42;;;2.60;;
23470;SDS011;11908;50.806;4.424;2022-07-06T03:26:29;6.30;;;2.67;;
23470;SDS011;11908;50.806;4.424;2022-07-06T03:28:54;7.20;;;2.55;;
23470;SDS011;11908;50.806;4.424;2022-07-06T03:31:20;5.03;;;2.30;;
23470;SDS011;11908;50.806;4.424;2022-07-06T03:33:46;6.05;;;2.42;;
23470;SDS011;11908;50.806;4.424;2022-07-06T03:36:11;4.50;;;2.30;;
23470;SDS011;11908;50.806;4.424;2022-07-06T03:38:38;4.38;;;2.40;;
23470;SDS011;11908;50.806;4.424;2022-07-06T03:41:03;3.83;;;2.35;;
23470;SDS011;11908;50.806;4.424;2022-07-06T03:43:29;3.63;;;2.65;;
23470;SDS011;11908;50.806;4.424;2022-07-06T03:45:55;4.90;;;2.30;;
23470;SDS011;11908;50.806;4.424;2022-07-06T03:48:21;7.63;;;2.72;;
23470;SDS011;11908;50.806;4.424;2022-07-06T03:50:47;3.92;;;2.30;;
23470;SDS011;11908;50.806;4.424;2022-07-06T03:53:13;5.35;;;2.58;;
23470;SDS011;11908;50.806;4.424;2022-07-06T03:55:38;3.38;;;2.40;;
23470;SDS011;11908;50.806;4.424;2022-07-06T03:58:04;3.95;;;2.40;;
23470;SDS011;11908;50.806;4.424;2022-07-06T04:00:30;6.05;;;2.55;;
23470;SDS011;11908;50.806;4.424;2022-07-06T04:02:55;4.20;;;2.63;;
23470;SDS011;11908;50.806;4.424;2022-07-06T04:05:21;5.13;;;2.30;;
23470;SDS011;11908;50.806;4.424;2022-07-06T04:07:48;4.65;;;2.20;;
23470;SDS011;11908;50.806;4.424;2022-07-06T04:10:14;5.88;;;2.50;;
23470;SDS011;11908;50.806;4.424;2022-07-06T04:12:43;4.40;;;2.35;;
23470;SDS011;11908;50.806;4.424;2022-07-06T04:15:10;4.68;;;2.45;;
23470;SDS011;11908;50.806;4.424;2022-07-06T04:17:36;5.90;;;2.40;;
23470;SDS011;11908;50.806;4.424;2022-07-06T04:20:18;4.68;;;2.17;;
23470;SDS011;11908;50.806;4.424;2022-07-06T04:22:44;3.38;;;2.30;;
23470;SDS011;11908;50.806;4.424;2022-07-06T04:25:10;6.75;;;2.13;;
23470;SDS011;11908;50.806;4.424;2022-07-06T04:27:36;2.80;;;2.30;;
23470;SDS011;11908;50.806;4.424;2022-07-06T04:30:05;7.22;;;2.47;;
23470;SDS011;11908;50.806;4.424;2022-07-06T04:32:31;3.78;;;2.80;;
23470;SDS011;11908;50.806;4.424;2022-07-06T04:34:57;7.18;;;2.72;;
23470;SDS011;11908;50.806;4.424;2022-07-06T04:37:23;2.78;;;1.80;;
23470;SDS011;11908;50.806;4.424;2022-07-06T04:39:48;6.57;;;2.42;;
23470;SDS011;11908;50.806;4.424;2022-07-06T04:42:14;4.93;;;1.77;;
23470;SDS011;11908;50.806;4.424;2022-07-06T04:44:40;2.95;;;2.10;;
23470;SDS011;11908;50.806;4.424;2022-07-06T04:47:05;2.85;;;1.95;;
23470;SDS011;11908;50.806;4.424;2022-07-06T04:49:31;5.20;;;2.13;;
23470;SDS011;11908;50.806;4.424;2022-07-06T04:51:57;3.00;;;1.55;;
23470;SDS011;11908;50.806;4.424;2022-07-06T04:54:22;2.58;;;1.60;;
23470;SDS011;11908;50.806;4.424;2022-07-06T04:56:48;3.97;;;1.45;;
23470;SDS011;11908;50.806;4.424;2022-07-06T04:59:14;3.45;;;1.83;;
23470;SDS011;11908;50.806;4.424;2022-07-06T05:01:39;2.97;;;1.90;;
23470;SDS011;11908;50.806;4.424;2022-07-06T05:04:05;5.00;;;2.00;;
23470;SDS011;11908;50.806;4.424;2022-07-06T05:06:31;1.63;;;1.38;;
23470;SDS011;11908;50.806;4.424;2022-07-06T05:08:57;2.88;;;1.60;;
23470;SDS011;11908;50.806;4.424;2022-07-06T05:11:24;6.43;;;1.60;;
23470;SDS011;11908;50.806;4.424;2022-07-06T05:13:50;4.55;;;1.73;;
23470;SDS011;11908;50.806;4.424;2022-07-06T05:16:16;5.75;;;1.60;;
23470;SDS011;11908;50.806;4.424;2022-07-06T05:18:41;3.13;;;1.55;;
23470;SDS011;11908;50.806;4.424;2022-07-06T05:21:07;4.35;;;1.60;;
23470;SDS011;11908;50.806;4.424;2022-07-06T05:23:33;6.50;;;1.52;;
23470;SDS011;11908;50.806;4.424;2022-07-06T05:25:58;5.38;;;1.90;;
23470;SDS011;11908;50.806;4.424;2022-07-06T05:28:24;4.18;;;1.52;;
23470;SDS011;11908;50.806;4.424;2022-07-06T05:30:50;3.00;;;1.80;;
23470;SDS011;11908;50.806;4.424;2022-07-06T05:33:15;3.47;;;1.42;;
23470;SDS011;11908;50.806;4.424;2022-07-06T05:35:41;2.22;;;1.70;;
23470;SDS011;11908;50.806;4.424;2022-07-06T05:38:07;2.50;;;1.70;;
23470;SDS011;11908;50.806;4.424;2022-07-06T05:40:32;3.75;;;1.88;;
23470;SDS011;11908;50.806;4.424;2022-07-06T05:42:58;5.50;;;1.90;;
23470;SDS011;11908;50.806;4.424;2022-07-06T05:45:24;4.32;;;1.90;;
23470;SDS011;11908;50.806;4.424;2022-07-06T05:47:50;5.22;;;1.80;;
23470;SDS011;11908;50.806;4.424;2022-07-06T05:50:34;3.33;;;1.90;;
23470;SDS011;11908;50.806;4.424;2022-07-06T05:53:01;3.63;;;1.52;;
23470;SDS011;11908;50.806;4.424;2022-07-06T05:55:28;5.43;;;1.92;;
23470;SDS011;11908;50.806;4.424;2022-07-06T05:57:54;4.10;;;1.80;;
23470;SDS011;11908;50.806;4.424;2022-07-06T06:00:21;2.45;;;1.30;;
23470;SDS011;11908;50.806;4.424;2022-07-06T06:02:48;5.78;;;1.75;;
23470;SDS011;11908;50.806;4.424;2022-07-06T06:05:14;3.83;;;1.75;;
23470;SDS011;11908;50.806;4.424;2022-07-06T06:07:40;5.43;;;1.88;;
23470;SDS011;11908;50.806;4.424;2022-07-06T06:10:07;3.80;;;1.55;;
23470;SDS011;11908;50.806;4.424;2022-07-06T06:12:34;5.32;;;1.95;;
23470;SDS011;11908;50.806;4.424;2022-07-06T06:15:00;2.17;;;1.52;;
23470;SDS011;11908;50.806;4.424;2022-07-06T06:17:26;2.50;;;1.50;;
23470;SDS011;11908;50.806;4.424;2022-07-06T06:19:51;4.40;;;1.40;;
23470;SDS011;11908;50.806;4.424;2022-07-06T06:22:17;4.40;;;1.70;;
23470;SDS011;11908;50.806;4.424;2022-07-06T06:24:43;5.10;;;1.70;;
23470;SDS011;11908;50.806;4.424;2022-07-06T06:27:09;4.28;;;1.50;;
23470;SDS011;11908;50.806;4.424;2022-07-06T06:29:35;4.40;;;1.70;;
23470;SDS011;11908;50.806;4.424;2022-07-06T06:32:00;2.05;;;1.40;;
23470;SDS011;11908;50.806;4.424;2022-07-06T06:34:26;7.82;;;2.22;;
23470;SDS011;11908;50.806;4.424;2022-07-06T06:36:51;3.10;;;1.45;;
23470;SDS011;11908;50.806;4.424;2022-07-06T06:39:17;3.70;;;1.60;;
23470;SDS011;11908;50.806;4.424;2022-07-06T06:41:43;4.63;;;1.80;;
23470;SDS011;11908;50.806;4.424;2022-07-06T06:44:08;6.13;;;1.55;;
23470;SDS011;11908;50.806;4.424;2022-07-06T06:46:34;5.70;;;1.90;;
23470;SDS011;11908;50.806;4.424;2022-07-06T06:49:00;6.60;;;2.17;;
23470;SDS011;11908;50.806;4.424;2022-07-06T06:51:25;6.32;;;1.73;;
23470;SDS011;11908;50.806;4.424;2022-07-06T06:53:51;7.32;;;1.90;;
23470;SDS011;11908;50.806;4.424;2022-07-06T06:56:16;13.30;;;2.30;;
23470;SDS011;11908;50.806;4.424;2022-07-06T06:58:42;6.03;;;2.22;;
23470;SDS011;11908;50.806;4.424;2022-07-06T07:01:08;6.32;;;2.15;;
23470;SDS011;11908;50.806;4.424;2022-07-06T07:03:34;5.35;;;2.00;;
23470;SDS011;11908;50.806;4.424;2022-07-06T07:06:00;7.93;;;2.03;;
23470;SDS011;11908;50.806;4.424;2022-07-06T07:08:25;8.80;;;2.10;;
23470;SDS011;11908;50.806;4.424;2022-07-06T07:10:51;5.45;;;1.88;;
23470;SDS011;11908;50.806;4.424;2022-07-06T07:13:17;7.80;;;1.73;;
23470;SDS011;11908;50.806;4.424;2022-07-06T07:15:43;5.68;;;2.05;;
23470;SDS011;11908;50.806;4.424;2022-07-06T07:18:08;8.93;;;2.20;;
23470;SDS011;11908;50.806;4.424;2022-07-06T07:20:34;5.50;;;2.20;;
23470;SDS011;11908;50.806;4.424;2022-07-06T07:23:00;5.28;;;1.90;;
23470;SDS011;11908;50.806;4.424;2022-07-06T07:25:26;7.93;;;1.83;;
23470;SDS011;11908;50.806;4.424;2022-07-06T07:27:52;6.35;;;2.38;;
23470;SDS011;11908;50.806;4.424;2022-07-06T07:30:18;5.03;;;1.90;;
23470;SDS011;11908;50.806;4.424;2022-07-06T07:32:44;8.27;;;1.83;;
23470;SDS011;11908;50.806;4.424;2022-07-06T07:35:10;8.15;;;1.77;;
23470;SDS011;11908;50.806;4.424;2022-07-06T07:37:36;7.97;;;2.20;;
23470;SDS011;11908;50.806;4.424;2022-07-06T07:40:01;9.27;;;1.92;;
23470;SDS011;11908;50.806;4.424;2022-07-06T07:42:28;6.18;;;1.90;;
23470;SDS011;11908;50.806;4.424;2022-07-06T07:44:53;9.88;;;1.77;;
23470;SDS011;11908;50.806;4.424;2022-07-06T07:47:19;7.53;;;2.35;;
23470;SDS011;11908;50.806;4.424;2022-07-06T07:49:45;9.48;;;2.10;;
23470;SDS011;11908;50.806;4.424;2022-07-06T07:52:10;10.95;;;1.85;;
23470;SDS011;11908;50.806;4.424;2022-07-06T07:54:36;6.07;;;1.85;;
23470;SDS011;11908;50.806;4.424;2022-07-06T07:57:02;5.75;;;1.50;;
23470;SDS011;11908;50.806;4.424;2022-07-06T07:59:28;4.97;;;1.60;;
23470;SDS011;11908;50.806;4.424;2022-07-06T08:01:53;7.57;;;1.98;;
23470;SDS011;11908;50.806;4.424;2022-07-06T08:04:19;7.38;;;1.65;;
23470;SDS011;11908;50.806;4.424;2022-07-06T08:06:45;8.50;;;1.65;;
23470;SDS011;11908;50.806;4.424;2022-07-06T08:09:11;6.82;;;1.60;;
23470;SDS011;11908;50.806;4.424;2022-07-06T08:11:37;5.40;;;1.42;;
23470;SDS011;11908;50.806;4.424;2022-07-06T08:14:03;7.68;;;1.90;;
23470;SDS011;11908;50.806;4.424;2022-07-06T08:16:29;5.60;;;1.92;;
23470;SDS011;11908;50.806;4.424;2022-07-06T08:18:55;6.47;;;2.05;;
23470;SDS011;11908;50.806;4.424;2022-07-06T08:21:21;7.65;;;2.10;;
23470;SDS011;11908;50.806;4.424;2022-07-06T08:23:47;4.40;;;1.83;;
23470;SDS011;11908;50.806;4.424;2022-07-06T08:26:13;7.20;;;2.20;;
23470;SDS011;11908;50.806;4.424;2022-07-06T08:28:38;6.50;;;1.90;;
23470;SDS011;11908;50.806;4.424;2022-07-06T08:31:04;6.88;;;2.10;;
23470;SDS011;11908;50.806;4.424;2022-07-06T08:33:30;8.10;;;2.20;;
23470;SDS011;11908;50.806;4.424;2022-07-06T08:35:56;4.63;;;2.10;;
23470;SDS011;11908;50.806;4.424;2022-07-06T08:38:21;4.38;;;2.00;;
23470;SDS011;11908;50.806;4.424;2022-07-06T08:40:48;4.55;;;1.70;;
23470;SDS011;11908;50.806;4.424;2022-07-06T08:43:15;5.65;;;2.25;;
23470;SDS011;11908;50.806;4.424;2022-07-06T08:45:41;5.47;;;2.35;;
23470;SDS011;11908;50.806;4.424;2022-07-06T08:48:09;7.32;;;2.40;;
23470;SDS011;11908;50.806;4.424;2022-07-06T08:50:35;4.78;;;2.17;;
23470;SDS011;11908;50.806;4.424;2022-07-06T08:53:01;8.50;;;2.42;;
23470;SDS011;11908;50.806;4.424;2022-07-06T08:55:27;6.85;;;2.65;;
23470;SDS011;11908;50.806;4.424;2022-07-06T08:57:54;9.07;;;2.38;;
23470;SDS011;11908;50.806;4.424;2022-07-06T09:00:20;5.57;;;2.40;;
23470;SDS011;11908;50.806;4.424;2022-07-06T09:02:47;4.70;;;2.22;;
23470;SDS011;11908;50.806;4.424;2022-07-06T09:05:16;11.30;;;2.40;;
23470;SDS011;11908;50.806;4.424;2022-07-06T09:07:42;6.68;;;2.50;;
23470;SDS011;11908;50.806;4.424;2022-07-06T09:10:10;7.47;;;2.58;;
23470;SDS011;11908;50.806;4.424;2022-07-06T09:12:37;5.13;;;2.05;;
23470;SDS011;11908;50.806;4.424;2022-07-06T09:15:03;10.65;;;2.50;;
23470;SDS011;11908;50.806;4.424;2022-07-06T09:17:29;4.90;;;2.25;;
23470;SDS011;11908;50.806;4.424;2022-07-06T09:19:55;6.07;;;2.33;;
23470;SDS011;11908;50.806;4.424;2022-07-06T09:22:25;5.60;;;2.28;;
23470;SDS011;11908;50.806;4.424;2022-07-06T09:24:52;7.38;;;2.22;;
23470;SDS011;11908;50.806;4.424;2022-07-06T09:27:18;4.88;;;2.20;;
23470;SDS011;11908;50.806;4.424;2022-07-06T09:29:44;8.55;;;2.13;;
23470;SDS011;11908;50.806;4.424;2022-07-06T09:32:10;6.63;;;2.08;;
23470;SDS011;11908;50.806;4.424;2022-07-06T09:34:45;5.53;;;1.88;;
23470;SDS011;11908;50.806;4.424;2022-07-06T09:37:12;6.75;;;2.20;;
23470;SDS011;11908;50.806;4.424;2022-07-06T09:39:39;6.60;;;1.75;;
23470;SDS011;11908;50.806;4.424;2022-07-06T09:42:06;7.07;;;1.90;;
23470;SDS011;11908;50.806;4.424;2022-07-06T09:44:37;8.82;;;2.40;;
23470;SDS011;11908;50.806;4.424;2022-07-06T09:47:05;6.57;;;2.40;;
23470;SDS011;11908;50.806;4.424;2022-07-06T09:49:35;4.80;;;2.30;;
23470;SDS011;11908;50.806;4.424;2022-07-06T09:52:03;4.50;;;2.10;;
23470;SDS011;11908;50.806;4.424;2022-07-06T09:54:34;8.80;;;2.60;;
23470;SDS011;11908;50.806;4.424;2022-07-06T09:57:00;8.57;;;1.80;;
23470;SDS011;11908;50.806;4.424;2022-07-06T09:59:27;6.88;;;2.20;;
23470;SDS011;11908;50.806;4.424;2022-07-06T10:01:58;4.40;;;2.08;;
23470;SDS011;11908;50.806;4.424;2022-07-06T10:04:31;5.20;;;2.38;;
23470;SDS011;11908;50.806;4.424;2022-07-06T10:06:57;10.10;;;2.42;;
23470;SDS011;11908;50.806;4.424;2022-07-06T10:09:25;4.78;;;1.75;;
23470;SDS011;11908;50.806;4.424;2022-07-06T10:11:56;4.53;;;1.80;;
23470;SDS011;11908;50.806;4.424;2022-07-06T10:14:27;6.20;;;2.30;;
23470;SDS011;11908;50.806;4.424;2022-07-06T10:16:58;4.75;;;2.33;;
23470;SDS011;11908;50.806;4.424;2022-07-06T10:19:28;7.38;;;2.42;;
23470;SDS011;11908;50.806;4.424;2022-07-06T10:21:56;5.47;;;1.70;;
23470;SDS011;11908;50.806;4.424;2022-07-06T10:24:23;6.50;;;2.03;;
23470;SDS011;11908;50.806;4.424;2022-07-06T10:26:49;9.60;;;2.15;;
23470;SDS011;11908;50.806;4.424;2022-07-06T10:29:15;6.65;;;2.08;;
23470;SDS011;11908;50.806;4.424;2022-07-06T10:31:43;11.18;;;2.65;;
23470;SDS011;11908;50.806;4.424;2022-07-06T10:34:11;9.30;;;1.90;;
23470;SDS011;11908;50.806;4.424;2022-07-06T10:36:39;5.90;;;1.80;;
23470;SDS011;11908;50.806;4.424;2022-07-06T10:39:06;6.22;;;1.63;;
23470;SDS011;11908;50.806;4.424;2022-07-06T10:41:50;5.10;;;2.17;;
23470;SDS011;11908;50.806;4.424;2022-07-06T10:46:50;5.15;;;2.40;;
23470;SDS011;11908;50.806;4.424;2022-07-06T10:49:19;5.40;;;1.80;;
23470;SDS011;11908;50.806;4.424;2022-07-06T10:51:46;4.85;;;2.53;;
23470;SDS011;11908;50.806;4.424;2022-07-06T10:54:12;5.20;;;2.10;;
23470;SDS011;11908;50.806;4.424;2022-07-06T10:56:40;9.15;;;2.00;;
23470;SDS011;11908;50.806;4.424;2022-07-06T10:59:13;10.77;;;2.17;;
23470;SDS011;11908;50.806;4.424;2022-07-06T11:04:41;5.10;;;2.20;;
23470;SDS011;11908;50.806;4.424;2022-07-06T11:07:18;7.68;;;2.10;;
23470;SDS011;11908;50.806;4.424;2022-07-06T11:09:54;6.22;;;2.03;;
23470;SDS011;11908;50.806;4.424;2022-07-06T11:12:21;5.30;;;1.90;;
23470;SDS011;11908;50.806;4.424;2022-07-06T11:14:48;9.48;;;1.98;;
23470;SDS011;11908;50.806;4.424;2022-07-06T11:17:15;6.85;;;2.10;;
23470;SDS011;11908;50.806;4.424;2022-07-06T11:19:50;4.25;;;1.90;;
23470;SDS011;11908;50.806;4.424;2022-07-06T11:22:22;6.93;;;1.92;;
23470;SDS011;11908;50.806;4.424;2022-07-06T11:24:52;4.30;;;1.73;;
23470;SDS011;11908;50.806;4.424;2022-07-06T11:27:18;6.03;;;1.77;;
23470;SDS011;11908;50.806;4.424;2022-07-06T11:29:44;5.90;;;2.20;;
23470;SDS011;11908;50.806;4.424;2022-07-06T11:32:10;6.40;;;1.75;;
23470;SDS011;11908;50.806;4.424;2022-07-06T11:34:40;4.28;;;1.35;;
23470;SDS011;11908;50.806;4.424;2022-07-06T11:37:08;6.55;;;1.98;;
23470;SDS011;11908;50.806;4.424;2022-07-06T11:39:36;5.18;;;1.10;;
23470;SDS011;11908;50.806;4.424;2022-07-06T11:42:05;4.95;;;1.40;;
23470;SDS011;11908;50.806;4.424;2022-07-06T11:44:32;5.88;;;1.50;;
23470;SDS011;11908;50.806;4.424;2022-07-06T11:46:59;6.25;;;1.60;;
23470;SDS011;11908;50.806;4.424;2022-07-06T11:49:27;5.70;;;1.63;;
23470;SDS011;11908;50.806;4.424;2022-07-06T11:51:53;2.90;;;1.63;;
23470;SDS011;11908;50.806;4.424;2022-07-06T11:54:20;4.78;;;1.45;;
23470;SDS011;11908;50.806;4.424;2022-07-06T11:59:26;5.78;;;1.58;;
23470;SDS011;11908;50.806;4.424;2022-07-06T12:04:29;6.00;;;1.58;;
23470;SDS011;11908;50.806;4.424;2022-07-06T12:07:00;4.97;;;1.48;;
23470;SDS011;11908;50.806;4.424;2022-07-06T12:09:34;12.82;;;1.38;;
23470;SDS011;11908;50.806;4.424;2022-07-06T12:12:01;5.60;;;1.17;;
23470;SDS011;11908;50.806;4.424;2022-07-06T12:14:29;7.55;;;1.40;;
23470;SDS011;11908;50.806;4.424;2022-07-06T12:16:55;1.83;;;1.10;;
23470;SDS011;11908;50.806;4.424;2022-07-06T12:19:21;3.63;;;1.10;;
23470;SDS011;11908;50.806;4.424;2022-07-06T12:21:51;4.18;;;1.20;;
23470;SDS011;11908;50.806;4.424;2022-07-06T12:24:21;5.22;;;1.30;;
23470;SDS011;11908;50.806;4.424;2022-07-06T12:26:52;4.90;;;1.50;;
23470;SDS011;11908;50.806;4.424;2022-07-06T12:29:19;9.27;;;1.88;;
23470;SDS011;11908;50.806;4.424;2022-07-06T12:34:22;7.65;;;1.60;;
23470;SDS011;11908;50.806;4.424;2022-07-06T12:36:51;4.83;;;1.20;;
23470;SDS011;11908;50.806;4.424;2022-07-06T12:39:24;3.95;;;1.30;;
23470;SDS011;11908;50.806;4.424;2022-07-06T12:41:55;4.35;;;1.60;;
23470;SDS011;11908;50.806;4.424;2022-07-06T12:44:25;3.80;;;1.40;;
23470;SDS011;11908;50.806;4.424;2022-07-06T12:47:12;4.15;;;1.30;;
23470;SDS011;11908;50.806;4.424;2022-07-06T12:49:38;5.97;;;1.48;;
23470;SDS011;11908;50.806;4.424;2022-07-06T12:54:46;5.55;;;1.67;;
23470;SDS011;11908;50.806;4.424;2022-07-06T12:57:19;5.45;;;1.50;;
23470;SDS011;11908;50.806;4.424;2022-07-06T13:02:23;3.78;;;1.13;;
23470;SDS011;11908;50.806;4.424;2022-07-06T13:05:02;2.45;;;1.30;;
23470;SDS011;11908;50.806;4.424;2022-07-06T13:07:29;6.63;;;1.35;;
23470;SDS011;11908;50.806;4.424;2022-07-06T13:09:57;4.20;;;1.50;;
23470;SDS011;11908;50.806;4.424;2022-07-06T13:12:23;2.28;;;1.10;;
23470;SDS011;11908;50.806;4.424;2022-07-06T13:14:49;4.55;;;1.30;;
23470;SDS011;11908;50.806;4.424;2022-07-06T13:17:16;5.93;;;1.50;;
23470;SDS011;11908;50.806;4.424;2022-07-06T13:19:41;2.70;;;1.23;;
23470;SDS011;11908;50.806;4.424;2022-07-06T13:22:07;5.20;;;1.77;;
23470;SDS011;11908;50.806;4.424;2022-07-06T13:24:33;2.08;;;1.23;;
23470;SDS011;11908;50.806;4.424;2022-07-06T13:26:59;5.60;;;1.10;;
23470;SDS011;11908;50.806;4.424;2022-07-06T13:29:24;3.50;;;1.50;;
23470;SDS011;11908;50.806;4.424;2022-07-06T13:31:50;2.80;;;1.25;;
23470;SDS011;11908;50.806;4.424;2022-07-06T13:34:16;2.50;;;1.58;;
23470;SDS011;11908;50.806;4.424;2022-07-06T13:36:42;4.30;;;1.20;;
23470;SDS011;11908;50.806;4.424;2022-07-06T13:39:08;5.45;;;1.48;;
23470;SDS011;11908;50.806;4.424;2022-07-06T13:41:34;5.78;;;1.58;;
23470;SDS011;11908;50.806;4.424;2022-07-06T13:44:00;5.40;;;1.65;;
23470;SDS011;11908;50.806;4.424;2022-07-06T13:46:27;6.13;;;1.55;;
23470;SDS011;11908;50.806;4.424;2022-07-06T13:48:54;6.00;;;1.88;;
23470;SDS011;11908;50.806;4.424;2022-07-06T13:51:21;4.28;;;2.03;;
23470;SDS011;11908;50.806;4.424;2022-07-06T13:53:47;7.82;;;1.90;;
23470;SDS011;11908;50.806;4.424;2022-07-06T13:56:13;7.05;;;1.30;;
23470;SDS011;11908;50.806;4.424;2022-07-06T13:58:38;5.05;;;1.35;;
23470;SDS011;11908;50.806;4.424;2022-07-06T14:01:04;3.78;;;1.60;;
23470;SDS011;11908;50.806;4.424;2022-07-06T14:03:30;7.95;;;1.63;;
23470;SDS011;11908;50.806;4.424;2022-07-06T14:05:57;10.20;;;1.77;;
23470;SDS011;11908;50.806;4.424;2022-07-06T14:08:23;2.33;;;1.40;;
23470;SDS011;11908;50.806;4.424;2022-07-06T14:10:49;2.95;;;1.60;;
23470;SDS011;11908;50.806;4.424;2022-07-06T14:13:15;5.20;;;1.33;;
23470;SDS011;11908;50.806;4.424;2022-07-06T14:15:41;6.10;;;1.42;;
23470;SDS011;11908;50.806;4.424;2022-07-06T14:18:06;4.03;;;1.30;;
23470;SDS011;11908;50.806;4.424;2022-07-06T14:20:32;5.90;;;1.50;;
23470;SDS011;11908;50.806;4.424;2022-07-06T14:22:58;3.63;;;1.60;;
23470;SDS011;11908;50.806;4.424;2022-07-06T14:25:23;6.20;;;1.63;;
23470;SDS011;11908;50.806;4.424;2022-07-06T14:27:49;3.88;;;1.40;;
23470;SDS011;11908;50.806;4.424;2022-07-06T14:30:14;3.30;;;1.20;;
23470;SDS011;11908;50.806;4.424;2022-07-06T14:32:40;5.30;;;1.50;;
23470;SDS011;11908;50.806;4.424;2022-07-06T14:35:08;4.40;;;1.48;;
23470;SDS011;11908;50.806;4.424;2022-07-06T14:37:34;5.68;;;1.25;;
23470;SDS011;11908;50.806;4.424;2022-07-06T14:40:00;6.25;;;1.42;;
23470;SDS011;11908;50.806;4.424;2022-07-06T14:42:26;3.47;;;1.27;;
23470;SDS011;11908;50.806;4.424;2022-07-06T14:44:51;7.00;;;1.48;;
23470;SDS011;11908;50.806;4.424;2022-07-06T14:47:17;7.97;;;1.60;;
23470;SDS011;11908;50.806;4.424;2022-07-06T14:49:43;3.97;;;1.20;;
23470;SDS011;11908;50.806;4.424;2022-07-06T14:52:08;3.42;;;1.40;;
23470;SDS011;11908;50.806;4.424;2022-07-06T14:54:35;6.18;;;1.50;;
23470;SDS011;11908;50.806;4.424;2022-07-06T14:57:01;2.65;;;1.00;;
23470;SDS011;11908;50.806;4.424;2022-07-06T14:59:29;7.88;;;1.40;;
23470;SDS011;11908;50.806;4.424;2022-07-06T15:01:57;4.20;;;1.30;;
23470;SDS011;11908;50.806;4.424;2022-07-06T15:04:23;5.22;;;1.42;;